Time;durP1;ratioP1;P1;durP2;ratioP2;P2;SDS_P1;SDS_P2;PMS_P1;PMS_P2;Temp;Humidity;BMP_temperature;BMP_pressure;BME280_temperature;BME280_humidity;BME280_pressure;Samples;Min_cycle;Max_cycle;Signal;HPM_P1;HPM_P2
2021/01/06 00:01:41;;;;;;;58.17;25.50;;;;;;;5.57;100.00;101693.81;5059668;28;20472;-78
2021/01/06 00:04:07;;;;;;;53.93;23.50;;;;;;;5.45;100.00;101690.75;5065637;28;20199;-73
2021/01/06 00:06:36;;;;;;;58.57;24.20;;;;;;;5.48;100.00;101701.91;5068871;28;20165;-76
2021/01/06 00:09:04;;;;;;;59.70;23.80;;;;;;;5.58;100.00;101708.53;5069196;28;20194;-74
2021/01/06 00:11:31;;;;;;;55.87;22.10;;;;;;;5.58;100.00;101705.06;5069076;28;20442;-81
2021/01/06 00:13:57;;;;;;;57.50;23.73;;;;;;;5.58;100.00;101708.53;5059077;28;20396;-75
2021/01/06 00:16:22;;;;;;;58.77;21.73;;;;;;;5.62;100.00;101711.06;5064794;28;20417;-74
2021/01/06 00:18:48;;;;;;;56.43;23.23;;;;;;;5.60;100.00;101715.47;5073295;28;20547;-74
2021/01/06 00:21:13;;;;;;;61.90;23.63;;;;;;;5.61;100.00;101711.97;5062108;28;20165;-75
2021/01/06 00:23:39;;;;;;;59.50;23.50;;;;;;;5.72;100.00;101713.34;5067073;28;20164;-81
2021/01/06 00:26:04;;;;;;;61.53;24.50;;;;;;;5.71;100.00;101714.25;5054393;28;20295;-77
2021/01/06 00:28:30;;;;;;;63.13;25.40;;;;;;;5.74;100.00;101721.09;5058834;28;20164;-75
2021/01/06 00:30:57;;;;;;;64.50;25.53;;;;;;;5.60;100.00;101716.34;5073095;28;20152;-76
2021/01/06 00:33:26;;;;;;;63.80;24.87;;;;;;;5.72;100.00;101715.09;5059559;28;20165;-79
2021/01/06 00:36:01;;;;;;;61.67;25.77;;;;;;;5.79;100.00;101709.63;5055670;28;20398;-81
2021/01/06 00:38:28;;;;;;;60.67;24.33;;;;;;;5.82;100.00;101712.16;5064660;28;20411;-78
2021/01/06 00:40:54;;;;;;;60.00;22.67;;;;;;;5.89;100.00;101723.22;5074762;28;20387;-77
2021/01/06 00:43:20;;;;;;;59.73;22.90;;;;;;;5.80;100.00;101718.31;5075029;28;20413;-77
2021/01/06 00:45:45;;;;;;;56.13;22.87;;;;;;;5.69;100.00;101723.88;5073571;28;20403;-80
2021/01/06 00:48:12;;;;;;;57.20;23.27;;;;;;;5.74;100.00;101716.78;5056138;28;20422;-78
2021/01/06 00:50:38;;;;;;;66.47;22.63;;;;;;;5.60;100.00;101715.47;5053029;28;20529;-74
2021/01/06 00:53:12;;;;;;;54.53;20.33;;;;;;;5.71;100.00;101714.25;5054115;28;20905;-72
2021/01/06 00:55:38;;;;;;;57.83;22.37;;;;;;;5.63;100.00;101723.19;5063820;28;20172;-75
2021/01/06 00:58:03;;;;;;;58.17;21.83;;;;;;;5.66;100.00;101720.47;5067732;28;20841;-76
2021/01/06 01:00:30;;;;;;;53.90;20.97;;;;;;;5.56;100.00;101725.13;5071872;28;20198;-73
2021/01/06 01:02:56;;;;;;;53.80;20.57;;;;;;;5.47;100.00;101718.44;5063135;28;20170;-73
2021/01/06 01:05:27;;;;;;;56.93;22.73;;;;;;;5.34;100.00;101718.84;5053109;28;20422;-72
2021/01/06 01:07:53;;;;;;;54.93;22.87;;;;;;;5.22;100.00;101722.69;5054364;28;20407;-78
2021/01/06 01:10:22;;;;;;;62.40;23.20;;;;;;;5.25;100.00;101723.44;5053903;28;20395;-80
2021/01/06 01:12:50;;;;;;;60.50;23.77;;;;;;;5.14;100.00;101724.63;5053486;28;20470;-73
2021/01/06 01:15:21;;;;;;;55.70;21.43;;;;;;;5.20;100.00;101722.69;5056220;28;20783;-81
2021/01/06 01:17:47;;;;;;;55.13;22.00;;;;;;;5.08;100.00;101727.41;5061356;28;20413;-79
2021/01/06 01:20:13;;;;;;;62.43;25.03;;;;;;;5.19;100.00;101715.78;5057880;28;20404;-83
2021/01/06 01:22:39;;;;;;;58.60;26.07;;;;;;;5.12;100.00;101719.47;5052735;28;20400;-75
2021/01/06 01:25:05;;;;;;;60.13;23.80;;;;;;;5.00;100.00;101717.22;5053283;28;20403;-78
2021/01/06 01:27:31;;;;;;;60.43;25.27;;;;;;;4.90;100.00;101721.81;5053923;28;20164;-77
2021/01/06 01:29:56;;;;;;;56.20;23.57;;;;;;;4.79;100.00;101723.84;5054116;28;20404;-77
2021/01/06 01:32:22;;;;;;;58.57;20.67;;;;;;;4.93;100.00;101728.69;5060687;28;20271;-74
2021/01/06 01:34:48;;;;;;;55.97;20.40;;;;;;;5.06;100.00;101731.78;5071346;28;20607;-74
2021/01/06 01:37:14;;;;;;;51.40;20.10;;;;;;;5.04;100.00;101726.63;5071111;28;20282;-74
2021/01/06 01:39:39;;;;;;;55.47;19.53;;;;;;;4.96;100.00;101726.00;5069898;28;20411;-74
2021/01/06 01:42:05;;;;;;;53.03;21.37;;;;;;;4.91;100.00;101727.88;5061847;28;20185;-75
2021/01/06 01:44:30;;;;;;;57.17;21.60;;;;;;;4.87;100.00;101727.09;5057605;28;20577;-73
2021/01/06 01:47:15;;;;;;;67.77;22.60;;;;;;;4.89;100.00;101719.25;5061474;28;20165;-75
2021/01/06 01:49:47;;;;;;;59.23;23.63;;;;;;;5.03;100.00;101722.31;5064003;28;20160;-73
2021/01/06 01:52:54;;;;;;;60.83;24.93;;;;;;;5.00;100.00;101722.44;5059271;28;20450;-73
2021/01/06 01:55:21;;;;;;;65.23;26.00;;;;;;;5.03;100.00;101719.72;4967765;28;21093;-73
2021/01/06 01:57:52;;;;;;;56.67;24.70;;;;;;;5.05;100.00;101727.50;4955554;28;20419;-77
2021/01/06 02:00:25;;;;;;;64.73;26.67;;;;;;;4.85;100.00;101721.09;5019099;28;20509;-75
2021/01/06 02:03:12;;;;;;;60.53;26.93;;;;;;;4.94;100.00;101727.78;5070812;28;20379;-81
2021/01/06 02:05:46;;;;;;;66.03;27.93;;;;;;;4.98;100.00;101727.66;5052337;28;20416;-74
2021/01/06 02:08:17;;;;;;;60.33;27.00;;;;;;;4.93;100.00;101723.50;5053352;28;20489;-75
2021/01/06 02:10:51;;;;;;;60.60;26.67;;;;;;;4.91;100.00;101730.47;5054002;28;20400;-82
2021/01/06 02:13:33;;;;;;;62.20;26.17;;;;;;;4.73;100.00;101724.00;5068790;28;20442;-81
2021/01/06 02:16:58;;;;;;;62.80;24.67;;;;;;;4.81;100.00;101727.25;5071522;28;20413;-75
2021/01/06 02:19:30;;;;;;;61.30;26.40;;;;;;;4.90;100.00;101731.38;4990862;28;20395;-76
2021/01/06 02:21:55;;;;;;;70.67;27.50;;;;;;;4.80;100.00;101733.38;5002678;28;20422;-74
2021/01/06 02:24:21;;;;;;;61.50;27.30;;;;;;;4.80;100.00;101735.13;5046325;28;20419;-77
2021/01/06 02:26:48;;;;;;;63.37;29.37;;;;;;;4.71;100.00;101739.69;5058375;28;20454;-74
2021/01/06 02:29:14;;;;;;;66.60;27.97;;;;;;;4.70;100.00;101748.38;5051812;28;20810;-82
2021/01/06 02:31:39;;;;;;;61.63;28.57;;;;;;;4.79;100.00;101746.44;5052408;28;21042;-79
2021/01/06 02:34:06;;;;;;;64.17;28.10;;;;;;;4.90;100.00;101747.00;5051548;28;20399;-75
2021/01/06 02:36:31;;;;;;;62.83;27.07;;;;;;;4.88;100.00;101748.78;5053547;28;20152;-78
2021/01/06 02:38:58;;;;;;;66.73;28.83;;;;;;;4.94;100.00;101756.44;5053285;28;20434;-74
2021/01/06 02:41:24;;;;;;;69.30;31.70;;;;;;;4.75;100.00;101761.25;5051605;28;20404;-74
2021/01/06 02:43:51;;;;;;;75.37;31.50;;;;;;;4.64;100.00;101764.16;5066082;28;20410;-73
2021/01/06 02:46:17;;;;;;;83.60;37.27;;;;;;;4.64;100.00;101763.31;5069936;28;20397;-73
2021/01/06 02:48:43;;;;;;;79.37;34.83;;;;;;;4.59;100.00;101762.56;5069976;28;20430;-75
2021/01/06 02:51:35;;;;;;;76.73;35.33;;;;;;;4.72;100.00;101756.16;5069660;28;20897;-72
2021/01/06 02:54:07;;;;;;;79.60;36.03;;;;;;;4.68;100.00;101763.16;5059569;28;20439;-75
2021/01/06 02:56:34;;;;;;;73.37;35.37;;;;;;;4.77;100.00;101769.06;5053901;28;20496;-76
2021/01/06 02:59:03;;;;;;;84.97;35.80;;;;;;;4.73;100.00;101766.50;5053361;28;20457;-73
2021/01/06 03:01:35;;;;;;;80.63;40.50;;;;;;;4.90;100.00;101766.06;5060330;28;20467;-75
2021/01/06 03:04:01;;;;;;;77.97;36.00;;;;;;;4.98;100.00;101752.84;5055540;28;20411;-76
2021/01/06 03:06:29;;;;;;;90.23;44.20;;;;;;;4.96;100.00;101752.03;5051751;28;20407;-75
2021/01/06 03:08:54;;;;;;;85.97;42.33;;;;;;;4.98;100.00;101758.03;5051895;28;20216;-79
2021/01/06 03:11:20;;;;;;;86.80;41.23;;;;;;;4.98;100.00;101760.66;5050976;28;20507;-78
2021/01/06 03:13:46;;;;;;;88.87;44.27;;;;;;;4.81;100.00;101766.31;5055381;28;20242;-78
2021/01/06 03:16:11;;;;;;;88.60;45.23;;;;;;;4.76;100.00;101762.13;5052138;28;20153;-75
2021/01/06 03:18:38;;;;;;;92.27;46.10;;;;;;;4.62;100.00;101771.16;5069339;28;20171;-78
2021/01/06 03:21:07;;;;;;;95.23;43.50;;;;;;;4.62;100.00;101775.50;5072445;28;20160;-73
2021/01/06 03:23:38;;;;;;;94.17;45.17;;;;;;;4.61;100.00;101772.06;5069702;28;20425;-82
2021/01/06 03:26:08;;;;;;;91.47;43.70;;;;;;;4.54;100.00;101777.44;5070302;28;20451;-79
2021/01/06 03:28:35;;;;;;;92.50;44.67;;;;;;;4.47;100.00;101788.91;5069641;28;20413;-83
2021/01/06 03:31:04;;;;;;;89.10;43.70;;;;;;;4.47;100.00;101789.75;5065613;28;20404;-75
2021/01/06 03:33:47;;;;;;;82.20;40.67;;;;;;;4.52;100.00;101794.81;5061785;28;20426;-74
2021/01/06 03:36:24;;;;;;;75.30;36.70;;;;;;;4.54;100.00;101800.88;5071519;28;20391;-74
2021/01/06 03:38:49;;;;;;;84.70;37.93;;;;;;;4.45;100.00;101801.91;5070713;28;20398;-78
2021/01/06 03:41:16;;;;;;;86.27;41.40;;;;;;;4.39;100.00;101804.69;5059665;28;20422;-76
2021/01/06 03:43:48;;;;;;;75.20;37.07;;;;;;;4.30;100.00;101803.16;5070280;28;20192;-75
2021/01/06 03:46:34;;;;;;;76.60;35.80;;;;;;;4.35;100.00;101798.69;5070875;28;20391;-82
2021/01/06 03:49:31;;;;;;;71.03;36.93;;;;;;;4.21;100.00;101795.56;5064789;28;20781;-75
2021/01/06 03:52:07;;;;;;;92.90;41.50;;;;;;;4.15;100.00;101806.09;5070981;28;20446;-75
2021/01/06 03:55:10;;;;;;;83.47;43.10;;;;;;;4.02;100.00;101804.69;5057738;28;20418;-74
2021/01/06 03:57:37;;;;;;;82.20;40.60;;;;;;;3.94;100.00;101819.59;5071984;28;20395;-75
2021/01/06 04:00:24;;;;;;;93.37;49.37;;;;;;;3.82;100.00;101818.97;5071344;28;20478;-77
2021/01/06 04:02:56;;;;;;;93.90;44.97;;;;;;;3.68;100.00;101823.59;5066045;28;20431;-76
2021/01/06 04:05:22;;;;;;;93.00;45.87;;;;;;;3.69;100.00;101832.25;5054445;28;20403;-75
2021/01/06 04:07:56;;;;;;;92.87;47.37;;;;;;;3.61;100.00;101828.06;5068128;28;20430;-75
2021/01/06 04:10:26;;;;;;;83.93;38.70;;;;;;;3.79;100.00;101826.00;5071759;28;20410;-81
2021/01/06 04:12:51;;;;;;;82.40;39.20;;;;;;;3.82;100.00;101825.91;5062375;28;20435;-75
2021/01/06 04:15:18;;;;;;;88.27;36.40;;;;;;;3.73;100.00;101826.97;5051379;28;20392;-74
2021/01/06 04:17:47;;;;;;;80.30;40.30;;;;;;;3.74;100.00;101825.22;5033335;28;20165;-74
2021/01/06 04:20:15;;;;;;;71.60;32.60;;;;;;;3.86;100.00;101824.97;5052847;28;20785;-83
2021/01/06 04:22:51;;;;;;;76.87;37.00;;;;;;;3.92;100.00;101827.41;5067513;28;20406;-76
2021/01/06 04:25:26;;;;;;;68.77;31.97;;;;;;;3.88;100.00;101821.44;5071955;28;20527;-79
2021/01/06 04:27:58;;;;;;;76.50;36.90;;;;;;;3.83;100.00;101819.81;5069305;28;20417;-79
2021/01/06 04:30:36;;;;;;;85.00;38.67;;;;;;;3.82;100.00;101826.75;5066461;28;20412;-78
2021/01/06 04:33:05;;;;;;;78.60;36.67;;;;;;;3.78;100.00;101829.44;5066474;28;20453;-73
2021/01/06 04:35:31;;;;;;;78.43;37.87;;;;;;;3.77;100.00;101826.00;5071454;28;20457;-82
2021/01/06 04:37:58;;;;;;;79.37;37.60;;;;;;;3.77;100.00;101825.13;5071365;28;20419;-77
2021/01/06 04:40:27;;;;;;;75.43;35.70;;;;;;;3.68;100.00;101826.19;5068670;28;20549;-78
2021/01/06 04:42:59;;;;;;;74.93;36.13;;;;;;;3.66;100.00;101824.53;5055343;28;20411;-74
2021/01/06 04:45:33;;;;;;;74.63;36.97;;;;;;;3.63;100.00;101820.25;5056464;28;20450;-75
2021/01/06 04:48:19;;;;;;;74.57;37.60;;;;;;;3.65;100.00;101825.41;5061771;28;20429;-73
2021/01/06 04:51:20;;;;;;;71.37;36.00;;;;;;;3.55;100.00;101837.72;5075611;28;20407;-74
2021/01/06 04:54:22;;;;;;;68.90;32.97;;;;;;;3.47;100.00;101832.66;5056094;28;20491;-75
2021/01/06 04:57:25;;;;;;;73.43;33.03;;;;;;;3.50;100.00;101819.63;5010701;28;20864;-75
2021/01/06 05:00:09;;;;;;;78.17;39.27;;;;;;;3.41;100.00;101812.03;5056119;28;20418;-78
2021/01/06 05:03:12;;;;;;;80.47;37.13;;;;;;;3.39;100.00;101813.78;5071879;28;20414;-82
2021/01/06 05:06:29;;;;;;;91.37;35.60;;;;;;;3.52;100.00;101825.66;5075480;28;20812;-76
2021/01/06 05:09:00;;;;;;;80.10;40.10;;;;;;;3.42;100.00;101829.31;5028935;28;20430;-75
2021/01/06 05:11:34;;;;;;;81.80;38.70;;;;;;;3.45;100.00;101826.66;5075161;28;20406;-79
2021/01/06 05:14:10;;;;;;;84.77;39.50;;;;;;;3.45;100.00;101824.06;5072197;28;20418;-83
2021/01/06 05:16:46;;;;;;;86.57;42.77;;;;;;;3.39;100.00;101826.78;5056976;28;20407;-73
2021/01/06 05:19:38;;;;;;;97.47;48.30;;;;;;;3.44;100.00;101827.53;5053829;28;20411;-75
2021/01/06 05:22:05;;;;;;;92.00;46.77;;;;;;;3.43;100.00;101820.66;5064064;28;20415;-75
2021/01/06 05:24:50;;;;;;;96.40;46.80;;;;;;;3.50;100.00;101817.03;5074119;28;20455;-77
2021/01/06 05:27:27;;;;;;;89.07;43.10;;;;;;;3.55;100.00;101822.13;5070976;28;20491;-83
2021/01/06 05:29:58;;;;;;;83.00;40.67;;;;;;;3.69;100.00;101817.50;5054500;28;20487;-83
2021/01/06 05:32:24;;;;;;;89.77;42.43;;;;;;;3.69;100.00;101825.31;5054694;28;20443;-79
2021/01/06 05:34:57;;;;;;;89.57;41.73;;;;;;;3.68;100.00;101821.00;5054356;28;20418;-80
2021/01/06 05:37:24;;;;;;;82.13;40.80;;;;;;;3.66;100.00;101820.19;5049751;28;20161;-75
2021/01/06 05:39:52;;;;;;;83.20;40.03;;;;;;;3.69;100.00;101830.50;5054033;28;20440;-77
2021/01/06 05:42:26;;;;;;;85.50;40.13;;;;;;;3.69;100.00;101832.25;5065896;28;20494;-75
2021/01/06 05:44:55;;;;;;;107.73;46.77;;;;;;;3.76;100.00;101828.63;5054043;28;20486;-78
2021/01/06 05:47:48;;;;;;;86.20;40.37;;;;;;;3.73;100.00;101829.56;5036512;28;20438;-74
2021/01/06 05:50:18;;;;;;;79.37;37.23;;;;;;;3.90;100.00;101821.41;5043596;28;20442;-80
2021/01/06 05:52:55;;;;;;;83.00;37.17;;;;;;;3.86;100.00;101819.78;5053916;28;20530;-75
2021/01/06 05:55:21;;;;;;;84.40;41.13;;;;;;;3.96;100.00;101810.88;5035863;28;20423;-76
2021/01/06 05:58:02;;;;;;;77.53;36.83;;;;;;;4.01;100.00;101813.38;5054273;28;20423;-76
2021/01/06 06:01:14;;;;;;;88.10;41.50;;;;;;;4.01;100.00;101813.38;5054142;28;20179;-76
2021/01/06 06:04:06;;;;;;;76.83;39.90;;;;;;;4.10;100.00;101821.81;5022725;28;20427;-79
2021/01/06 06:06:41;;;;;;;78.37;36.80;;;;;;;4.18;100.00;101812.09;5036093;28;20972;-74
2021/01/06 06:09:31;;;;;;;82.33;37.53;;;;;;;4.22;100.00;101812.03;5071849;28;20414;-75
2021/01/06 06:12:20;;;;;;;86.03;38.13;;;;;;;4.21;100.00;101826.78;5072972;28;20446;-75
2021/01/06 06:15:06;;;;;;;78.57;38.17;;;;;;;4.30;100.00;101831.75;5065950;28;20792;-74
2021/01/06 06:17:44;;;;;;;83.90;39.07;;;;;;;4.41;100.00;101834.13;5052867;28;20399;-79
2021/01/06 06:20:23;;;;;;;86.50;39.90;;;;;;;4.60;100.00;101843.19;5066112;28;20410;-73
2021/01/06 06:22:56;;;;;;;88.50;35.70;;;;;;;4.64;100.00;101850.03;5062634;28;20459;-73
2021/01/06 06:25:32;;;;;;;75.53;37.93;;;;;;;4.68;100.00;101858.63;5072280;28;20461;-82
2021/01/06 06:28:09;;;;;;;76.77;34.20;;;;;;;4.67;100.00;101851.69;5068137;28;20410;-77
2021/01/06 06:30:51;;;;;;;79.83;33.20;;;;;;;4.63;100.00;101845.72;5071132;28;20835;-74
2021/01/06 06:33:27;;;;;;;74.37;35.87;;;;;;;4.74;100.00;101856.72;5060190;28;20549;-73
2021/01/06 06:35:55;;;;;;;82.93;36.67;;;;;;;4.83;100.00;101857.38;5072786;28;20445;-76
2021/01/06 06:38:35;;;;;;;83.60;37.13;;;;;;;4.99;100.00;101858.75;5053530;28;20388;-76
2021/01/06 06:41:04;;;;;;;85.63;36.80;;;;;;;5.03;100.00;101860.34;5053013;28;20529;-75
2021/01/06 06:43:43;;;;;;;85.83;39.80;;;;;;;5.07;100.00;101867.22;5067797;28;20462;-79
2021/01/06 06:46:33;;;;;;;82.57;36.57;;;;;;;5.20;100.00;101865.97;5071117;28;20431;-77
2021/01/06 06:49:05;;;;;;;82.33;39.57;;;;;;;5.30;100.00;101864.00;5073213;28;20402;-77
2021/01/06 06:51:53;;;;;;;96.63;64.70;;;;;;;5.49;100.00;101856.53;5052990;28;20446;-73
2021/01/06 06:54:38;;;;;;;93.33;39.97;;;;;;;5.64;100.00;101863.91;5054019;28;20420;-81
2021/01/06 06:57:22;;;;;;;81.40;38.37;;;;;;;5.77;100.00;101861.81;5054692;28;20480;-81
2021/01/06 07:00:13;;;;;;;83.63;36.53;;;;;;;5.85;100.00;101871.13;5067354;28;20407;-76
2021/01/06 07:02:57;;;;;;;82.60;37.93;;;;;;;5.96;100.00;101878.66;5069118;28;20417;-73
2021/01/06 07:05:49;;;;;;;86.30;37.90;;;;;;;6.06;100.00;101872.28;5072397;28;20418;-82
2021/01/06 07:08:22;;;;;;;86.10;36.67;;;;;;;6.12;100.00;101873.84;5062878;28;20415;-76
2021/01/06 07:10:58;;;;;;;83.00;36.10;;;;;;;6.17;100.00;101871.97;5063152;28;20407;-79
2021/01/06 07:13:25;;;;;;;114.47;43.70;;;;;;;6.31;100.00;101872.41;5068877;28;20442;-77
2021/01/06 07:16:01;;;;;;;99.57;39.37;;;;;;;6.36;100.00;101870.50;5073062;28;20868;-82
2021/01/06 07:18:27;;;;;;;78.50;35.93;;;;;;;6.58;100.00;101868.09;5073314;28;20767;-84
2021/01/06 07:20:58;;;;;;;100.73;38.20;;;;;;;6.70;100.00;101864.22;5073288;28;20383;-80
2021/01/06 07:23:27;;;;;;;89.60;38.03;;;;;;;6.96;100.00;101881.66;5058962;28;20253;-81
2021/01/06 07:26:11;;;;;;;85.70;37.33;;;;;;;7.10;100.00;101889.00;5057878;28;20528;-82
2021/01/06 07:28:37;;;;;;;82.93;36.47;;;;;;;7.23;100.00;101879.84;5071260;28;20417;-84
2021/01/06 07:31:53;;;;;;;96.83;38.20;;;;;;;7.39;100.00;101883.63;5070975;28;20407;-80
2021/01/06 07:34:23;;;;;;;81.37;35.03;;;;;;;7.55;100.00;101883.09;5044845;28;20189;-82
2021/01/06 07:36:54;;;;;;;106.40;35.30;;;;;;;7.66;100.00;101875.72;5054349;28;20762;-79
2021/01/06 07:39:28;;;;;;;83.63;35.67;;;;;;;7.66;100.00;101870.50;5061846;28;20494;-82
2021/01/06 07:41:54;;;;;;;89.57;36.67;;;;;;;7.77;100.00;101865.72;5060437;28;20486;-82
2021/01/06 07:44:32;;;;;;;85.80;34.00;;;;;;;7.89;100.00;101865.28;5072536;28;20482;-83
2021/01/06 07:46:57;;;;;;;81.80;34.60;;;;;;;7.97;100.00;101870.22;5059332;28;20488;-78
2021/01/06 07:49:47;;;;;;;78.37;32.70;;;;;;;8.21;100.00;101871.03;5071488;28;20390;-83
2021/01/06 07:52:46;;;;;;;89.23;33.13;;;;;;;8.42;100.00;101875.47;5069489;28;20295;-85
2021/01/06 07:55:35;;;;;;;85.40;31.37;;;;;;;8.62;100.00;101877.31;5068885;28;20760;-80
2021/01/06 07:58:09;;;;;;;81.03;28.57;;;;;;;8.76;100.00;101874.97;5054208;28;20404;-79
2021/01/06 08:00:44;;;;;;;73.53;26.80;;;;;;;8.92;100.00;101880.44;5064983;28;20459;-83
2021/01/06 08:03:29;;;;;;;91.57;34.43;;;;;;;8.97;100.00;101875.84;5065054;28;20419;-80
2021/01/06 08:05:59;;;;;;;78.10;34.20;;;;;;;8.88;100.00;101871.84;5070010;28;20426;-76
2021/01/06 08:08:28;;;;;;;84.00;34.77;;;;;;;9.01;100.00;101872.19;5072117;28;20539;-76
2021/01/06 08:11:05;;;;;;;91.77;37.60;;;;;;;9.12;100.00;101875.19;5054433;28;20460;-84
2021/01/06 08:13:35;;;;;;;81.90;35.37;;;;;;;9.30;100.00;101876.22;5070943;28;20810;-80
2021/01/06 08:16:06;;;;;;;73.87;31.20;;;;;;;9.49;100.00;101875.41;5073457;28;20417;-83
2021/01/06 08:19:10;;;;;;;68.07;33.80;;;;;;;9.65;100.00;101872.00;5058525;28;20842;-78
2021/01/06 08:22:02;;;;;;;63.90;32.97;;;;;;;9.93;100.00;101876.03;5055817;28;20429;-78
2021/01/06 08:24:42;;;;;;;83.33;52.90;;;;;;;9.96;100.00;101889.84;5061229;28;20426;-80
2021/01/06 08:27:14;;;;;;;73.20;52.27;;;;;;;10.12;100.00;101887.38;5056100;28;20454;-80
2021/01/06 08:29:40;;;;;;;74.77;56.13;;;;;;;10.23;100.00;101886.94;5069262;28;20406;-84
2021/01/06 08:32:08;;;;;;;85.13;65.60;;;;;;;10.39;100.00;101889.69;5075563;28;20437;-82
2021/01/06 08:34:38;;;;;;;90.43;66.77;;;;;;;10.45;100.00;101887.63;5076273;28;20274;-81
2021/01/06 08:37:10;;;;;;;77.57;59.30;;;;;;;10.44;100.00;101898.22;5075197;28;20414;-80
2021/01/06 08:39:57;;;;;;;85.43;68.17;;;;;;;10.58;100.00;101877.38;5064227;28;20403;-83
2021/01/06 08:42:28;;;;;;;88.30;73.63;;;;;;;10.73;100.00;101891.53;5066230;28;20466;-82
2021/01/06 08:45:00;;;;;;;91.23;75.40;;;;;;;10.80;100.00;101888.50;5063356;28;20407;-79
2021/01/06 08:47:38;;;;;;;80.03;69.27;;;;;;;10.99;100.00;101877.94;5057998;28;20438;-79
2021/01/06 08:50:15;;;;;;;71.77;54.23;;;;;;;11.10;100.00;101866.88;5055400;28;20912;-76
2021/01/06 08:52:42;;;;;;;72.33;58.93;;;;;;;11.26;100.00;101878.34;5057575;28;20462;-81
2021/01/06 08:55:33;;;;;;;71.93;62.30;;;;;;;11.43;100.00;101871.34;5067263;28;20770;-81
2021/01/06 08:57:59;;;;;;;71.90;55.37;;;;;;;11.54;100.00;101869.00;5055916;28;20490;-74
2021/01/06 09:00:33;;;;;;;68.13;58.73;;;;;;;11.75;100.00;101875.75;5067479;28;20412;-84
2021/01/06 09:03:21;;;;;;;77.93;69.90;;;;;;;11.99;100.00;101873.63;5055856;28;20756;-81
2021/01/06 09:05:52;;;;;;;71.13;63.33;;;;;;;12.19;100.00;101867.28;5068774;28;20860;-80
2021/01/06 09:08:21;;;;;;;61.50;42.37;;;;;;;12.46;100.00;101859.59;5057612;28;20441;-78
2021/01/06 09:11:05;;;;;;;62.23;37.83;;;;;;;12.55;100.00;101855.59;5073050;28;20506;-78
2021/01/06 09:13:37;;;;;;;57.10;34.83;;;;;;;12.82;100.00;101853.16;5066011;28;20801;-78
2021/01/06 09:16:16;;;;;;;54.43;26.43;;;;;;;13.11;100.00;101843.53;5058032;28;20561;-82
2021/01/06 09:18:53;;;;;;;53.57;22.13;;;;;;;13.23;100.00;101843.69;5074949;28;20390;-75
2021/01/06 09:21:23;;;;;;;52.43;18.13;;;;;;;13.18;100.00;101844.84;5057152;28;20477;-82
2021/01/06 09:23:54;;;;;;;56.00;23.33;;;;;;;13.22;100.00;101841.13;5066428;28;20395;-82
2021/01/06 09:26:26;;;;;;;52.50;22.70;;;;;;;13.36;100.00;101837.66;5074260;28;20562;-79
2021/01/06 09:29:08;;;;;;;55.00;21.33;;;;;;;13.30;100.00;101833.59;5065563;28;20790;-79
2021/01/06 09:31:51;;;;;;;58.60;32.57;;;;;;;13.14;100.00;101830.97;5055292;28;20418;-75
2021/01/06 09:34:20;;;;;;;54.37;22.33;;;;;;;13.30;100.00;101831.81;5072314;28;20422;-80
2021/01/06 09:36:48;;;;;;;50.37;16.60;;;;;;;13.38;100.00;101825.22;5056125;28;20420;-73
2021/01/06 09:39:20;;;;;;;55.00;19.00;;;;;;;13.32;100.00;101822.00;5056213;28;20416;-72
2021/01/06 09:41:47;;;;;;;60.23;19.33;;;;;;;13.55;100.00;101827.66;5053697;28;20408;-74
2021/01/06 09:44:12;;;;;;;63.97;25.33;;;;;;;13.59;100.00;101827.38;5052296;28;20742;-73
2021/01/06 09:46:49;;;;;;;56.60;25.83;;;;;;;13.57;100.00;101816.06;5052565;28;20430;-72
2021/01/06 09:49:20;;;;;;;58.03;32.03;;;;;;;13.46;100.00;101813.25;5065555;28;20164;-72
2021/01/06 09:51:49;;;;;;;62.90;40.30;;;;;;;13.20;100.00;101811.34;5072260;28;20456;-71
2021/01/06 09:54:16;;;;;;;63.77;41.30;;;;;;;13.20;100.00;101809.53;5072776;28;20399;-73
2021/01/06 09:56:41;;;;;;;73.47;37.13;;;;;;;13.19;100.00;101799.06;5072415;28;20398;-73
2021/01/06 09:59:36;;;;;;;63.90;30.53;;;;;;;13.53;100.00;101806.66;5060484;28;20415;-79
2021/01/06 10:02:20;;;;;;;69.53;45.43;;;;;;;14.14;100.00;101805.41;5058613;28;20531;-72
2021/01/06 10:04:48;;;;;;;68.60;42.00;;;;;;;14.67;100.00;101798.41;5071899;28;20462;-77
2021/01/06 10:07:22;;;;;;;64.13;37.03;;;;;;;14.95;100.00;101797.38;5064335;28;20440;-73
2021/01/06 10:09:57;;;;;;;63.10;34.70;;;;;;;14.86;100.00;101797.16;5062846;28;20418;-79
2021/01/06 10:12:47;;;;;;;63.97;30.57;;;;;;;14.90;100.00;101788.94;5066560;28;20971;-73
2021/01/06 10:15:35;;;;;;;63.23;34.33;;;;;;;14.58;100.00;101774.34;5058734;28;20472;-78
2021/01/06 10:18:12;;;;;;;62.67;35.13;;;;;;;14.69;100.00;101774.50;5065931;28;20780;-77
2021/01/06 10:21:01;;;;;;;65.73;37.30;;;;;;;14.79;100.00;101782.66;5059336;28;20414;-77
2021/01/06 10:23:56;;;;;;;63.37;38.93;;;;;;;14.57;100.00;101780.59;5067291;28;20415;-78
2021/01/06 10:26:47;;;;;;;69.37;44.93;;;;;;;15.68;100.00;101770.25;5024748;28;20462;-73
2021/01/06 10:29:29;;;;;;;69.30;33.63;;;;;;;17.09;100.00;101749.97;5056014;28;20426;-74
2021/01/06 10:32:24;;;;;;;61.80;20.50;;;;;;;16.92;100.00;101753.06;5055422;28;20446;-79
2021/01/06 10:35:06;;;;;;;60.67;23.53;;;;;;;16.38;100.00;101754.47;5057593;28;20407;-76
2021/01/06 10:37:32;;;;;;;59.37;15.70;;;;;;;17.02;100.00;101748.75;5071527;28;20519;-78
2021/01/06 10:40:13;;;;;;;67.40;19.93;;;;;;;17.52;100.00;101745.72;5060623;28;20828;-85
2021/01/06 10:42:39;;;;;;;55.27;14.63;;;;;;;17.36;100.00;101740.78;5047756;28;20441;-79
2021/01/06 10:45:12;;;;;;;56.10;16.10;;;;;;;16.70;100.00;101742.41;5040257;28;20802;-80
2021/01/06 10:47:48;;;;;;;57.70;16.63;;;;;;;16.13;100.00;101754.59;5065071;28;20176;-74
2021/01/06 10:50:23;;;;;;;58.03;19.10;;;;;;;15.75;100.00;101758.25;5071403;28;20402;-79
2021/01/06 10:53:03;;;;;;;57.73;20.83;;;;;;;15.73;100.00;101754.03;5070078;28;20448;-78
2021/01/06 10:55:53;;;;;;;65.30;23.30;;;;;;;16.07;100.00;101749.75;5071114;28;20406;-79
2021/01/06 10:58:28;;;;;;;64.40;21.90;;;;;;;16.07;100.00;101739.97;5058498;28;20418;-80
2021/01/06 11:01:08;;;;;;;78.83;20.63;;;;;;;16.94;100.00;101729.91;5052643;28;20816;-80
2021/01/06 11:03:55;;;;;;;56.70;18.13;;;;;;;16.61;100.00;101723.53;5056673;28;20978;-82
2021/01/06 11:06:24;;;;;;;61.07;21.33;;;;;;;15.88;100.00;101722.91;5059667;28;20422;-81
2021/01/06 11:09:07;;;;;;;58.90;24.63;;;;;;;15.19;100.00;101722.53;5062367;28;20971;-82
2021/01/06 11:11:59;;;;;;;65.90;38.40;;;;;;;14.69;100.00;101722.44;5062056;28;20399;-78
2021/01/06 11:14:33;;;;;;;69.50;46.13;;;;;;;14.37;100.00;101726.38;5058754;28;20408;-80
2021/01/06 11:17:33;;;;;;;71.57;47.30;;;;;;;14.37;100.00;101727.22;5064233;28;20407;-76
2021/01/06 11:20:01;;;;;;;65.03;44.37;;;;;;;14.56;100.00;101723.38;5047664;28;20848;-82
2021/01/06 11:22:43;;;;;;;69.53;48.20;;;;;;;14.79;100.00;101722.63;5053139;28;20408;-74
2021/01/06 11:25:48;;;;;;;68.20;46.63;;;;;;;15.33;100.00;101710.94;5054975;28;20472;-73
2021/01/06 11:28:55;;;;;;;64.70;37.53;;;;;;;15.94;100.00;101698.59;5055866;28;20423;-74
2021/01/06 11:31:29;;;;;;;65.10;29.87;;;;;;;16.33;100.00;101692.97;4970170;28;20430;-84
2021/01/06 11:33:59;;;;;;;59.57;23.10;;;;;;;16.14;100.00;101691.81;4970006;28;20946;-83
2021/01/06 11:36:37;;;;;;;59.07;26.83;;;;;;;17.15;100.00;101684.88;4999395;28;20419;-79
2021/01/06 11:39:07;;;;;;;61.97;32.00;;;;;;;18.14;100.00;101676.81;5061863;28;20919;-80
2021/01/06 11:41:33;;;;;;;66.73;37.67;;;;;;;19.66;100.00;101662.69;5068836;28;20411;-81
2021/01/06 11:44:09;;;;;;;72.33;48.83;;;;;;;20.44;100.00;101654.66;5065945;28;20410;-81